sensor_id;sensor_type;location;lat;lon;timestamp;pressure;altitude;pressure_sealevel;temperature;humidity
70200;BME280;57587;55.688;37.600;2023-10-13T00:00:41;98117.31;;;9.87;71.74
70200;BME280;57587;55.688;37.600;2023-10-13T00:03:09;98120.66;;;9.82;70.58
70200;BME280;57587;55.688;37.600;2023-10-13T00:05:43;98124.75;;;9.85;71.00
70200;BME280;57587;55.688;37.600;2023-10-13T00:08:11;98124.56;;;9.80;71.30
70200;BME280;57587;55.688;37.600;2023-10-13T00:10:41;98138.97;;;9.79;71.48
70200;BME280;57587;55.688;37.600;2023-10-13T00:13:10;98131.38;;;9.76;71.29
70200;BME280;57587;55.688;37.600;2023-10-13T00:15:42;98136.09;;;9.74;71.09
70200;BME280;57587;55.688;37.600;2023-10-13T00:18:27;98140.66;;;9.66;71.07
70200;BME280;57587;55.688;37.600;2023-10-13T00:21:03;98129.97;;;9.66;71.14
70200;BME280;57587;55.688;37.600;2023-10-13T00:23:40;98136.72;;;9.69;70.36
70200;BME280;57587;55.688;37.600;2023-10-13T00:26:22;98136.56;;;9.64;71.10
70200;BME280;57587;55.688;37.600;2023-10-13T00:29:00;98134.94;;;9.56;71.29
70200;BME280;57587;55.688;37.600;2023-10-13T00:31:39;98143.13;;;9.61;71.85
70200;BME280;57587;55.688;37.600;2023-10-13T00:34:16;98156.91;;;9.58;70.75
70200;BME280;57587;55.688;37.600;2023-10-13T00:36:43;98139.88;;;9.53;71.26
70200;BME280;57587;55.688;37.600;2023-10-13T00:39:37;98142.56;;;9.53;71.42
70200;BME280;57587;55.688;37.600;2023-10-13T00:42:07;98148.94;;;9.52;71.38
70200;BME280;57587;55.688;37.600;2023-10-13T00:44:35;98150.38;;;9.47;71.45
70200;BME280;57587;55.688;37.600;2023-10-13T00:47:17;98138.69;;;9.49;70.88
70200;BME280;57587;55.688;37.600;2023-10-13T00:50:07;98151.63;;;9.45;71.37
70200;BME280;57587;55.688;37.600;2023-10-13T00:52:38;98155.94;;;9.46;71.22
70200;BME280;57587;55.688;37.600;2023-10-13T00:55:10;98162.47;;;9.50;70.78
70200;BME280;57587;55.688;37.600;2023-10-13T00:57:38;98158.56;;;9.53;71.33
70200;BME280;57587;55.688;37.600;2023-10-13T01:00:08;98154.88;;;9.54;70.77
70200;BME280;57587;55.688;37.600;2023-10-13T01:02:46;98165.34;;;9.55;70.55
70200;BME280;57587;55.688;37.600;2023-10-13T01:05:23;98156.69;;;9.60;70.12
70200;BME280;57587;55.688;37.600;2023-10-13T01:07:52;98161.03;;;9.61;69.83
70200;BME280;57587;55.688;37.600;2023-10-13T01:10:23;98170.63;;;9.68;69.68
70200;BME280;57587;55.688;37.600;2023-10-13T01:12:55;98172.44;;;9.75;69.46
70200;BME280;57587;55.688;37.600;2023-10-13T01:15:22;98159.28;;;9.80;69.21
70200;BME280;57587;55.688;37.600;2023-10-13T01:17:50;98164.81;;;9.85;69.41
70200;BME280;57587;55.688;37.600;2023-10-13T01:20:17;98168.72;;;9.82;69.24
70200;BME280;57587;55.688;37.600;2023-10-13T01:22:52;98171.78;;;9.86;69.15
70200;BME280;57587;55.688;37.600;2023-10-13T01:25:25;98167.66;;;9.90;68.79
70200;BME280;57587;55.688;37.600;2023-10-13T01:27:56;98155.53;;;9.94;68.61
70200;BME280;57587;55.688;37.600;2023-10-13T01:30:24;98170.72;;;9.93;68.76
70200;BME280;57587;55.688;37.600;2023-10-13T01:32:53;98168.25;;;9.92;68.58
70200;BME280;57587;55.688;37.600;2023-10-13T01:35:21;98170.28;;;9.97;68.69
70200;BME280;57587;55.688;37.600;2023-10-13T01:37:52;98178.69;;;10.00;67.68
70200;BME280;57587;55.688;37.600;2023-10-13T01:40:19;98173.97;;;10.02;68.52
70200;BME280;57587;55.688;37.600;2023-10-13T01:42:47;98173.72;;;10.10;68.34
70200;BME280;57587;55.688;37.600;2023-10-13T01:45:22;98178.00;;;10.11;68.61
70200;BME280;57587;55.688;37.600;2023-10-13T01:47:56;98175.16;;;10.06;68.28
70200;BME280;57587;55.688;37.600;2023-10-13T01:50:23;98182.34;;;10.06;68.34
70200;BME280;57587;55.688;37.600;2023-10-13T01:52:57;98187.13;;;10.04;68.17
70200;BME280;57587;55.688;37.600;2023-10-13T01:55:44;98187.50;;;10.07;68.43
70200;BME280;57587;55.688;37.600;2023-10-13T01:58:14;98188.56;;;10.00;68.26
70200;BME280;57587;55.688;37.600;2023-10-13T02:00:43;98193.47;;;10.03;68.81
70200;BME280;57587;55.688;37.600;2023-10-13T02:03:12;98197.75;;;10.10;68.45
70200;BME280;57587;55.688;37.600;2023-10-13T02:05:47;98193.28;;;10.04;68.63
70200;BME280;57587;55.688;37.600;2023-10-13T02:08:17;98191.19;;;10.06;68.38
70200;BME280;57587;55.688;37.600;2023-10-13T02:10:54;98195.34;;;10.02;68.71
70200;BME280;57587;55.688;37.600;2023-10-13T02:13:23;98194.97;;;9.92;68.62
70200;BME280;57587;55.688;37.600;2023-10-13T02:15:56;98201.59;;;9.83;68.58
70200;BME280;57587;55.688;37.600;2023-10-13T02:18:25;98199.56;;;9.78;69.10
70200;BME280;57587;55.688;37.600;2023-10-13T02:21:04;98206.56;;;9.79;68.92
70200;BME280;57587;55.688;37.600;2023-10-13T02:23:31;98208.03;;;9.68;68.70
70200;BME280;57587;55.688;37.600;2023-10-13T02:26:01;98202.69;;;9.68;68.99
70200;BME280;57587;55.688;37.600;2023-10-13T02:28:38;98212.16;;;9.64;68.50
70200;BME280;57587;55.688;37.600;2023-10-13T02:31:05;98214.44;;;9.61;68.46
70200;BME280;57587;55.688;37.600;2023-10-13T02:33:34;98212.59;;;9.55;68.40
70200;BME280;57587;55.688;37.600;2023-10-13T02:36:04;98222.84;;;9.58;68.76
70200;BME280;57587;55.688;37.600;2023-10-13T02:38:33;98230.63;;;9.66;68.91
70200;BME280;57587;55.688;37.600;2023-10-13T02:41:13;98226.25;;;9.78;69.01
70200;BME280;57587;55.688;37.600;2023-10-13T02:43:54;98247.41;;;9.86;68.60
70200;BME280;57587;55.688;37.600;2023-10-13T02:46:23;98236.50;;;9.95;67.95
70200;BME280;57587;55.688;37.600;2023-10-13T02:48:56;98240.41;;;9.92;67.95
70200;BME280;57587;55.688;37.600;2023-10-13T02:51:27;98233.63;;;9.89;68.05
70200;BME280;57587;55.688;37.600;2023-10-13T02:54:04;98239.34;;;9.93;67.82
70200;BME280;57587;55.688;37.600;2023-10-13T02:56:38;98240.19;;;9.93;68.03
70200;BME280;57587;55.688;37.600;2023-10-13T02:59:35;98252.91;;;9.98;67.49
70200;BME280;57587;55.688;37.600;2023-10-13T03:02:14;98246.75;;;9.98;67.20
70200;BME280;57587;55.688;37.600;2023-10-13T03:04:52;98249.63;;;9.96;67.40
70200;BME280;57587;55.688;37.600;2023-10-13T03:07:27;98256.44;;;9.92;67.71
70200;BME280;57587;55.688;37.600;2023-10-13T03:09:58;98256.63;;;9.90;67.51
70200;BME280;57587;55.688;37.600;2023-10-13T03:12:30;98258.31;;;9.85;67.94
70200;BME280;57587;55.688;37.600;2023-10-13T03:15:01;98257.06;;;9.81;68.05
70200;BME280;57587;55.688;37.600;2023-10-13T03:17:45;98262.41;;;9.81;68.17
70200;BME280;57587;55.688;37.600;2023-10-13T03:20:14;98267.53;;;9.89;67.59
70200;BME280;57587;55.688;37.600;2023-10-13T03:22:43;98273.66;;;9.96;67.17
70200;BME280;57587;55.688;37.600;2023-10-13T03:25:14;98262.13;;;10.02;66.01
70200;BME280;57587;55.688;37.600;2023-10-13T03:27:57;98263.19;;;10.01;67.21
70200;BME280;57587;55.688;37.600;2023-10-13T03:30:28;98267.75;;;9.94;66.51
70200;BME280;57587;55.688;37.600;2023-10-13T03:33:11;98273.09;;;9.94;66.86
70200;BME280;57587;55.688;37.600;2023-10-13T03:35:53;98262.81;;;9.84;67.07
70200;BME280;57587;55.688;37.600;2023-10-13T03:38:21;98268.84;;;9.73;67.22
70200;BME280;57587;55.688;37.600;2023-10-13T03:40:54;98270.91;;;9.64;67.27
70200;BME280;57587;55.688;37.600;2023-10-13T03:43:34;98266.81;;;9.55;67.59
70200;BME280;57587;55.688;37.600;2023-10-13T03:46:13;98274.63;;;9.50;67.68
70200;BME280;57587;55.688;37.600;2023-10-13T03:48:40;98270.75;;;9.39;67.98
70200;BME280;57587;55.688;37.600;2023-10-13T03:51:28;98294.97;;;9.38;68.40
70200;BME280;57587;55.688;37.600;2023-10-13T03:53:58;98286.78;;;9.33;68.64
70200;BME280;57587;55.688;37.600;2023-10-13T03:56:28;98287.59;;;9.27;68.34
70200;BME280;57587;55.688;37.600;2023-10-13T03:59:09;98309.38;;;9.30;68.06
70200;BME280;57587;55.688;37.600;2023-10-13T04:01:37;98314.69;;;9.30;68.09
70200;BME280;57587;55.688;37.600;2023-10-13T04:04:12;98327.00;;;9.31;67.96
70200;BME280;57587;55.688;37.600;2023-10-13T04:06:39;98329.91;;;9.30;67.73
70200;BME280;57587;55.688;37.600;2023-10-13T04:09:14;98337.28;;;9.28;67.88
70200;BME280;57587;55.688;37.600;2023-10-13T04:12:03;98341.78;;;9.40;68.32
70200;BME280;57587;55.688;37.600;2023-10-13T04:14:44;98343.84;;;9.52;67.37
70200;BME280;57587;55.688;37.600;2023-10-13T04:17:33;98347.97;;;9.54;67.30
70200;BME280;57587;55.688;37.600;2023-10-13T04:20:08;98345.91;;;9.50;66.21
70200;BME280;57587;55.688;37.600;2023-10-13T04:22:39;98351.22;;;9.50;67.24
70200;BME280;57587;55.688;37.600;2023-10-13T04:28:07;98357.81;;;9.47;67.53
70200;BME280;57587;55.688;37.600;2023-10-13T04:30:47;98358.63;;;9.41;67.19
70200;BME280;57587;55.688;37.600;2023-10-13T04:33:31;98365.00;;;9.66;67.20
70200;BME280;57587;55.688;37.600;2023-10-13T04:36:06;98366.97;;;10.04;65.92
70200;BME280;57587;55.688;37.600;2023-10-13T04:38:58;98377.19;;;10.21;65.22
70200;BME280;57587;55.688;37.600;2023-10-13T04:41:39;98383.91;;;10.50;63.48
70200;BME280;57587;55.688;37.600;2023-10-13T04:44:14;98391.66;;;10.65;62.85
70200;BME280;57587;55.688;37.600;2023-10-13T04:46:58;98386.56;;;10.56;62.92
70200;BME280;57587;55.688;37.600;2023-10-13T04:49:29;98396.28;;;10.44;62.99
70200;BME280;57587;55.688;37.600;2023-10-13T04:52:17;98400.41;;;10.40;62.87
70200;BME280;57587;55.688;37.600;2023-10-13T04:55:03;98400.81;;;10.44;62.95
70200;BME280;57587;55.688;37.600;2023-10-13T04:57:49;98419.50;;;10.50;62.57
70200;BME280;57587;55.688;37.600;2023-10-13T05:00:37;98415.59;;;10.46;62.18
70200;BME280;57587;55.688;37.600;2023-10-13T05:03:43;98419.31;;;10.45;62.52
70200;BME280;57587;55.688;37.600;2023-10-13T05:06:29;98431.00;;;10.57;62.07
70200;BME280;57587;55.688;37.600;2023-10-13T05:09:12;98442.59;;;10.83;61.35
70200;BME280;57587;55.688;37.600;2023-10-13T05:12:01;98435.91;;;11.05;59.96
70200;BME280;57587;55.688;37.600;2023-10-13T05:14:46;98429.47;;;11.45;59.20
70200;BME280;57587;55.688;37.600;2023-10-13T05:17:32;98435.47;;;11.72;58.31
70200;BME280;57587;55.688;37.600;2023-10-13T05:20:18;98434.88;;;11.95;57.98
70200;BME280;57587;55.688;37.600;2023-10-13T05:23:04;98449.31;;;12.74;55.37
70200;BME280;57587;55.688;37.600;2023-10-13T05:25:50;98449.91;;;13.06;53.46
70200;BME280;57587;55.688;37.600;2023-10-13T05:28:36;98446.66;;;14.23;51.83
70200;BME280;57587;55.688;37.600;2023-10-13T05:31:21;98447.31;;;15.35;48.37
70200;BME280;57587;55.688;37.600;2023-10-13T05:34:07;98445.91;;;15.95;46.46
70200;BME280;57587;55.688;37.600;2023-10-13T05:37:09;98451.06;;;17.13;44.01
70200;BME280;57587;55.688;37.600;2023-10-13T05:39:55;98465.19;;;17.47;42.57
70200;BME280;57587;55.688;37.600;2023-10-13T05:42:41;98479.44;;;16.93;43.30
70200;BME280;57587;55.688;37.600;2023-10-13T05:45:26;98480.03;;;16.18;44.80
70200;BME280;57587;55.688;37.600;2023-10-13T05:48:31;98480.59;;;16.03;45.75
70200;BME280;57587;55.688;37.600;2023-10-13T05:51:19;98494.09;;;15.57;45.90
70200;BME280;57587;55.688;37.600;2023-10-13T05:54:06;98488.91;;;15.10;47.60
70200;BME280;57587;55.688;37.600;2023-10-13T05:56:46;98499.38;;;15.23;47.39
70200;BME280;57587;55.688;37.600;2023-10-13T05:59:34;98504.75;;;14.95;47.21
70200;BME280;57587;55.688;37.600;2023-10-13T06:02:21;98497.19;;;14.45;48.61
70200;BME280;57587;55.688;37.600;2023-10-13T06:05:09;98512.06;;;14.12;49.63
70200;BME280;57587;55.688;37.600;2023-10-13T06:07:57;98520.59;;;14.09;50.02
70200;BME280;57587;55.688;37.600;2023-10-13T06:10:43;98511.69;;;13.97;50.72
70200;BME280;57587;55.688;37.600;2023-10-13T06:13:29;98524.28;;;13.84;50.10
70200;BME280;57587;55.688;37.600;2023-10-13T06:16:16;98525.97;;;13.67;49.78
70200;BME280;57587;55.688;37.600;2023-10-13T06:19:02;98531.56;;;13.66;49.84
70200;BME280;57587;55.688;37.600;2023-10-13T06:21:48;98540.28;;;13.79;50.30
70200;BME280;57587;55.688;37.600;2023-10-13T06:24:38;98527.50;;;15.85;46.53
70200;BME280;57587;55.688;37.600;2023-10-13T06:27:24;98533.41;;;16.32;44.02
70200;BME280;57587;55.688;37.600;2023-10-13T06:30:10;98537.78;;;16.72;43.46
70200;BME280;57587;55.688;37.600;2023-10-13T06:32:37;98541.09;;;16.57;43.40
70200;BME280;57587;55.688;37.600;2023-10-13T06:35:07;98550.19;;;16.18;45.07
70200;BME280;57587;55.688;37.600;2023-10-13T06:37:34;98546.09;;;15.70;44.19
70200;BME280;57587;55.688;37.600;2023-10-13T06:40:10;98546.41;;;15.44;44.96
70200;BME280;57587;55.688;37.600;2023-10-13T06:42:59;98547.47;;;16.18;43.53
70200;BME280;57587;55.688;37.600;2023-10-13T06:45:42;98570.91;;;17.23;41.46
70200;BME280;57587;55.688;37.600;2023-10-13T06:48:09;98569.81;;;17.46;40.07
70200;BME280;57587;55.688;37.600;2023-10-13T06:50:48;98589.38;;;17.32;40.68
70200;BME280;57587;55.688;37.600;2023-10-13T06:53:15;98569.00;;;17.24;40.36
70200;BME280;57587;55.688;37.600;2023-10-13T06:55:43;98578.19;;;17.01;40.62
70200;BME280;57587;55.688;37.600;2023-10-13T06:58:14;98578.22;;;18.26;37.69
70200;BME280;57587;55.688;37.600;2023-10-13T07:00:41;98580.47;;;18.39;36.91
70200;BME280;57587;55.688;37.600;2023-10-13T07:03:19;98576.31;;;18.96;36.47
70200;BME280;57587;55.688;37.600;2023-10-13T07:05:48;98603.28;;;19.86;35.03
70200;BME280;57587;55.688;37.600;2023-10-13T07:08:16;98589.16;;;19.79;34.41
70200;BME280;57587;55.688;37.600;2023-10-13T07:10:55;98589.69;;;19.86;33.85
70200;BME280;57587;55.688;37.600;2023-10-13T07:13:33;98589.44;;;20.95;33.33
70200;BME280;57587;55.688;37.600;2023-10-13T07:16:06;98609.47;;;21.40;32.33
70200;BME280;57587;55.688;37.600;2023-10-13T07:18:42;98615.03;;;20.68;33.22
70200;BME280;57587;55.688;37.600;2023-10-13T07:21:16;98616.03;;;19.96;34.00
70200;BME280;57587;55.688;37.600;2023-10-13T07:23:43;98619.38;;;18.93;35.80
70200;BME280;57587;55.688;37.600;2023-10-13T07:26:27;98634.63;;;18.07;37.36
70200;BME280;57587;55.688;37.600;2023-10-13T07:28:55;98632.56;;;17.48;38.28
70200;BME280;57587;55.688;37.600;2023-10-13T07:31:22;98643.75;;;17.13;38.95
70200;BME280;57587;55.688;37.600;2023-10-13T07:33:54;98633.53;;;16.81;39.96
70200;BME280;57587;55.688;37.600;2023-10-13T07:36:31;98640.97;;;16.74;40.06
70200;BME280;57587;55.688;37.600;2023-10-13T07:39:06;98646.91;;;16.26;40.38
70200;BME280;57587;55.688;37.600;2023-10-13T07:41:51;98642.63;;;15.96;41.12
70200;BME280;57587;55.688;37.600;2023-10-13T07:44:22;98649.56;;;16.54;40.35
70200;BME280;57587;55.688;37.600;2023-10-13T07:46:53;98638.56;;;18.22;36.89
70200;BME280;57587;55.688;37.600;2023-10-13T07:49:35;98671.06;;;18.27;36.12
70200;BME280;57587;55.688;37.600;2023-10-13T07:52:08;98659.13;;;17.95;36.24
70200;BME280;57587;55.688;37.600;2023-10-13T07:54:54;98663.41;;;17.91;36.86
70200;BME280;57587;55.688;37.600;2023-10-13T07:57:41;98666.69;;;18.48;36.31
70200;BME280;57587;55.688;37.600;2023-10-13T08:00:22;98671.16;;;18.64;35.88
70200;BME280;57587;55.688;37.600;2023-10-13T08:02:58;98669.91;;;21.06;32.94
70200;BME280;57587;55.688;37.600;2023-10-13T08:05:36;98680.25;;;20.84;31.96
70200;BME280;57587;55.688;37.600;2023-10-13T08:08:09;98694.69;;;22.00;30.37
70200;BME280;57587;55.688;37.600;2023-10-13T08:10:41;98686.81;;;20.72;30.99
70200;BME280;57587;55.688;37.600;2023-10-13T08:13:12;98692.16;;;20.42;31.77
70200;BME280;57587;55.688;37.600;2023-10-13T08:15:41;98700.28;;;20.21;31.65
70200;BME280;57587;55.688;37.600;2023-10-13T08:18:14;98713.84;;;20.11;31.84
70200;BME280;57587;55.688;37.600;2023-10-13T08:20:51;98716.03;;;20.24;31.21
70200;BME280;57587;55.688;37.600;2023-10-13T08:23:21;98717.78;;;20.87;30.80
70200;BME280;57587;55.688;37.600;2023-10-13T08:26:09;98726.69;;;22.34;28.37
70200;BME280;57587;55.688;37.600;2023-10-13T08:28:56;98735.44;;;22.70;27.46
70200;BME280;57587;55.688;37.600;2023-10-13T08:31:24;98737.13;;;22.06;28.07
70200;BME280;57587;55.688;37.600;2023-10-13T08:33:56;98744.09;;;21.58;28.48
70200;BME280;57587;55.688;37.600;2023-10-13T08:36:34;98741.69;;;21.46;29.19
70200;BME280;57587;55.688;37.600;2023-10-13T08:39:05;98735.81;;;22.59;27.37
70200;BME280;57587;55.688;37.600;2023-10-13T08:41:52;98745.06;;;22.58;27.36
70200;BME280;57587;55.688;37.600;2023-10-13T08:44:44;98751.47;;;22.32;27.44
70200;BME280;57587;55.688;37.600;2023-10-13T08:47:18;98747.41;;;23.43;25.89
70200;BME280;57587;55.688;37.600;2023-10-13T08:49:48;98754.16;;;23.21;25.62
70200;BME280;57587;55.688;37.600;2023-10-13T08:52:24;98763.06;;;24.09;24.77
70200;BME280;57587;55.688;37.600;2023-10-13T08:55:15;98762.44;;;23.40;25.15
70200;BME280;57587;55.688;37.600;2023-10-13T08:58:02;98773.94;;;23.03;25.65
70200;BME280;57587;55.688;37.600;2023-10-13T09:00:45;98763.25;;;23.12;25.93
70200;BME280;57587;55.688;37.600;2023-10-13T09:03:23;98774.31;;;24.51;24.16
70200;BME280;57587;55.688;37.600;2023-10-13T09:05:56;98757.16;;;25.81;23.16
70200;BME280;57587;55.688;37.600;2023-10-13T09:08:30;98774.00;;;25.88;22.18
70200;BME280;57587;55.688;37.600;2023-10-13T09:11:11;98778.28;;;26.08;22.88
70200;BME280;57587;55.688;37.600;2023-10-13T09:13:40;98775.00;;;26.34;22.13
70200;BME280;57587;55.688;37.600;2023-10-13T09:16:13;98767.59;;;24.81;23.21
70200;BME280;57587;55.688;37.600;2023-10-13T09:19:04;98790.06;;;24.16;24.56
70200;BME280;57587;55.688;37.600;2023-10-13T09:21:39;98792.28;;;24.57;24.02
70200;BME280;57587;55.688;37.600;2023-10-13T09:24:12;98799.38;;;25.94;22.27
70200;BME280;57587;55.688;37.600;2023-10-13T09:26:50;98805.97;;;26.48;21.61
70200;BME280;57587;55.688;37.600;2023-10-13T09:29:23;98809.00;;;26.47;21.00
70200;BME280;57587;55.688;37.600;2023-10-13T09:32:00;98810.13;;;26.32;21.49
70200;BME280;57587;55.688;37.600;2023-10-13T09:34:28;98817.84;;;26.43;21.23
70200;BME280;57587;55.688;37.600;2023-10-13T09:37:02;98823.88;;;25.71;21.90
70200;BME280;57587;55.688;37.600;2023-10-13T09:39:32;98817.56;;;25.24;22.33
70200;BME280;57587;55.688;37.600;2023-10-13T09:42:15;98815.75;;;24.15;23.68
70200;BME280;57587;55.688;37.600;2023-10-13T09:44:46;98833.69;;;23.39;24.99
70200;BME280;57587;55.688;37.600;2023-10-13T09:47:23;98846.94;;;22.77;25.21
70200;BME280;57587;55.688;37.600;2023-10-13T09:50:01;98836.78;;;22.28;26.02
70200;BME280;57587;55.688;37.600;2023-10-13T09:52:42;98845.06;;;21.26;27.56
70200;BME280;57587;55.688;37.600;2023-10-13T09:55:16;98851.13;;;20.44;28.49
70200;BME280;57587;55.688;37.600;2023-10-13T09:57:52;98857.47;;;20.08;29.29
70200;BME280;57587;55.688;37.600;2023-10-13T10:00:29;98862.97;;;20.86;29.01
70200;BME280;57587;55.688;37.600;2023-10-13T10:03:01;98859.69;;;22.27;27.42
70200;BME280;57587;55.688;37.600;2023-10-13T10:06:02;98857.88;;;21.71;27.77
70200;BME280;57587;55.688;37.600;2023-10-13T10:08:34;98863.44;;;20.67;28.99
70200;BME280;57587;55.688;37.600;2023-10-13T10:13:58;98855.97;;;20.32;30.33
70200;BME280;57587;55.688;37.600;2023-10-13T10:19:13;98864.84;;;20.80;28.66
70200;BME280;57587;55.688;37.600;2023-10-13T10:21:40;98869.25;;;21.07;27.98
70200;BME280;57587;55.688;37.600;2023-10-13T10:24:15;98881.38;;;20.16;29.49
70200;BME280;57587;55.688;37.600;2023-10-13T10:26:52;98886.00;;;20.10;30.41
70200;BME280;57587;55.688;37.600;2023-10-13T10:29:19;98873.59;;;20.87;28.97
70200;BME280;57587;55.688;37.600;2023-10-13T10:31:47;98882.09;;;21.73;27.63
70200;BME280;57587;55.688;37.600;2023-10-13T10:34:15;98876.03;;;22.27;26.82
70200;BME280;57587;55.688;37.600;2023-10-13T10:36:54;98874.44;;;21.95;26.19
70200;BME280;57587;55.688;37.600;2023-10-13T10:39:33;98885.66;;;21.83;26.67
70200;BME280;57587;55.688;37.600;2023-10-13T10:42:09;98887.34;;;22.60;26.25
70200;BME280;57587;55.688;37.600;2023-10-13T10:44:42;98879.03;;;22.90;25.45
70200;BME280;57587;55.688;37.600;2023-10-13T10:47:15;98890.34;;;22.63;25.13
70200;BME280;57587;55.688;37.600;2023-10-13T10:50:09;98899.25;;;21.94;25.47
70200;BME280;57587;55.688;37.600;2023-10-13T10:52:46;98917.50;;;21.73;26.29
70200;BME280;57587;55.688;37.600;2023-10-13T10:55:19;98917.16;;;21.23;26.95
70200;BME280;57587;55.688;37.600;2023-10-13T10:57:58;98914.94;;;21.05;26.71
70200;BME280;57587;55.688;37.600;2023-10-13T11:00:25;98905.28;;;20.61;27.28
70200;BME280;57587;55.688;37.600;2023-10-13T11:03:19;98918.44;;;20.32;27.89
70200;BME280;57587;55.688;37.600;2023-10-13T11:05:58;98902.78;;;20.02;28.47
70200;BME280;57587;55.688;37.600;2023-10-13T11:08:26;98915.19;;;19.93;28.93
70200;BME280;57587;55.688;37.600;2023-10-13T11:11:04;98940.44;;;19.88;29.76
70200;BME280;57587;55.688;37.600;2023-10-13T11:13:42;98929.91;;;19.38;29.25
70200;BME280;57587;55.688;37.600;2023-10-13T11:16:22;98949.56;;;18.96;30.10
70200;BME280;57587;55.688;37.600;2023-10-13T11:19:04;98943.44;;;18.44;30.99
70200;BME280;57587;55.688;37.600;2023-10-13T11:21:34;98936.47;;;18.10;32.08
70200;BME280;57587;55.688;37.600;2023-10-13T11:24:05;98941.72;;;17.66;32.15
70200;BME280;57587;55.688;37.600;2023-10-13T11:26:38;98945.84;;;17.40;32.62
70200;BME280;57587;55.688;37.600;2023-10-13T11:29:30;98951.13;;;16.89;33.50
70200;BME280;57587;55.688;37.600;2023-10-13T11:31:57;98959.88;;;16.56;33.88
70200;BME280;57587;55.688;37.600;2023-10-13T11:34:26;98964.84;;;16.35;33.97
70200;BME280;57587;55.688;37.600;2023-10-13T11:37:07;98968.69;;;15.93;34.74
70200;BME280;57587;55.688;37.600;2023-10-13T11:39:52;98981.31;;;15.68;35.41
70200;BME280;57587;55.688;37.600;2023-10-13T11:42:19;98972.66;;;15.48;35.62
70200;BME280;57587;55.688;37.600;2023-10-13T11:44:47;98971.34;;;15.39;35.90
70200;BME280;57587;55.688;37.600;2023-10-13T11:47:29;98978.00;;;15.25;36.69
70200;BME280;57587;55.688;37.600;2023-10-13T11:50:15;98983.41;;;15.25;36.77
70200;BME280;57587;55.688;37.600;2023-10-13T11:52:59;98991.78;;;15.16;37.24
70200;BME280;57587;55.688;37.600;2023-10-13T11:55:27;98974.75;;;15.04;37.46
70200;BME280;57587;55.688;37.600;2023-10-13T11:57:54;98982.41;;;14.89;37.43
70200;BME280;57587;55.688;37.600;2023-10-13T12:00:26;98980.59;;;14.83;37.92
70200;BME280;57587;55.688;37.600;2023-10-13T12:03:13;98987.34;;;14.73;37.98
70200;BME280;57587;55.688;37.600;2023-10-13T12:05:59;98984.34;;;14.63;38.78
70200;BME280;57587;55.688;37.600;2023-10-13T12:08:45;98989.06;;;14.49;38.06
70200;BME280;57587;55.688;37.600;2023-10-13T12:11:19;98986.25;;;14.38;38.69
70200;BME280;57587;55.688;37.600;2023-10-13T12:13:59;98981.78;;;14.32;38.93
70200;BME280;57587;55.688;37.600;2023-10-13T12:16:38;98973.16;;;14.23;38.26
70200;BME280;57587;55.688;37.600;2023-10-13T12:19:05;98989.94;;;14.18;39.30
70200;BME280;57587;55.688;37.600;2023-10-13T12:21:38;98993.09;;;14.15;39.18
70200;BME280;57587;55.688;37.600;2023-10-13T12:24:05;98988.19;;;14.12;39.21
70200;BME280;57587;55.688;37.600;2023-10-13T12:26:38;98996.69;;;14.09;39.52
70200;BME280;57587;55.688;37.600;2023-10-13T12:29:08;98986.81;;;14.03;39.30
70200;BME280;57587;55.688;37.600;2023-10-13T12:31:45;98993.44;;;14.00;39.43
70200;BME280;57587;55.688;37.600;2023-10-13T12:34:22;98998.44;;;13.97;39.83
70200;BME280;57587;55.688;37.600;2023-10-13T12:37:09;99005.28;;;13.93;39.88
70200;BME280;57587;55.688;37.600;2023-10-13T12:39:56;99006.78;;;13.89;40.54
70200;BME280;57587;55.688;37.600;2023-10-13T12:42:43;99004.53;;;13.86;40.03
70200;BME280;57587;55.688;37.600;2023-10-13T12:45:29;99006.16;;;13.87;40.18
70200;BME280;57587;55.688;37.600;2023-10-13T12:48:14;99012.59;;;13.86;40.13
70200;BME280;57587;55.688;37.600;2023-10-13T12:51:03;99005.41;;;13.79;40.00
70200;BME280;57587;55.688;37.600;2023-10-13T12:53:50;99012.09;;;13.70;40.13
70200;BME280;57587;55.688;37.600;2023-10-13T12:56:19;99014.16;;;13.68;41.05
70200;BME280;57587;55.688;37.600;2023-10-13T12:58:53;99015.41;;;13.66;41.01
70200;BME280;57587;55.688;37.600;2023-10-13T13:01:22;99015.44;;;13.59;41.16
70200;BME280;57587;55.688;37.600;2023-10-13T13:03:53;99021.25;;;13.56;41.42
70200;BME280;57587;55.688;37.600;2023-10-13T13:06:26;99016.22;;;13.41;40.98
70200;BME280;57587;55.688;37.600;2023-10-13T13:08:58;99015.78;;;13.37;41.14
70200;BME280;57587;55.688;37.600;2023-10-13T13:11:26;99023.25;;;13.35;41.36
70200;BME280;57587;55.688;37.600;2023-10-13T13:13:57;99025.56;;;13.32;41.36
70200;BME280;57587;55.688;37.600;2023-10-13T13:16:24;99025.81;;;13.17;41.31
70200;BME280;57587;55.688;37.600;2023-10-13T13:18:51;99036.31;;;13.25;41.96
70200;BME280;57587;55.688;37.600;2023-10-13T13:21:22;99031.78;;;13.26;42.29
70200;BME280;57587;55.688;37.600;2023-10-13T13:23:52;99047.06;;;13.25;42.20
70200;BME280;57587;55.688;37.600;2023-10-13T13:26:22;99050.78;;;13.18;41.86
70200;BME280;57587;55.688;37.600;2023-10-13T13:28:50;99034.47;;;13.12;41.66
70200;BME280;57587;55.688;37.600;2023-10-13T13:31:18;99045.47;;;13.11;41.82
70200;BME280;57587;55.688;37.600;2023-10-13T13:33:46;99038.88;;;13.07;41.93
70200;BME280;57587;55.688;37.600;2023-10-13T13:36:13;99039.72;;;13.01;42.58
70200;BME280;57587;55.688;37.600;2023-10-13T13:38:43;99049.22;;;12.97;42.57
70200;BME280;57587;55.688;37.600;2023-10-13T13:41:17;99048.44;;;12.89;41.98
70200;BME280;57587;55.688;37.600;2023-10-13T13:43:49;99051.72;;;12.91;42.42
70200;BME280;57587;55.688;37.600;2023-10-13T13:46:17;99058.13;;;12.90;42.06
70200;BME280;57587;55.688;37.600;2023-10-13T13:48:46;99065.97;;;12.92;42.22